South Heights, Pennsylvania
Current Conditions -  °F | °C
As of 3:51 AM on Wednesday 22 Oct 2014 (Local Time) from KPIT Reporting Station
Overcast Overcast  
Wind Chill: 43°   Ceiling: 1500
Heat Index: 48°   Visibility: 10mi
Dew Point: 45°   Wind: 13mph
Humidity: 89%   Direction: 340°NNW
Pressure: 30.04"   Gusts: NA
Location:  40.57°N, 80.24°W
Report Text: KPIT 220751Z 34011KT 10SM OVC015 09/07 A3004 RMK AO2 SLP183 T00890072
Loading
Personal Weather Stations






























Interactive Weather Map
Tropical Storm Tracking
New forecast layout! Learn more

10-Day Weather Forecast

Advertisements
Track Severe Weather on mobile